Time;durP1;ratioP1;P1;durP2;ratioP2;P2;SDS_P1;SDS_P2;PMS_P1;PMS_P2;Temp;Humidity;BMP_temperature;BMP_pressure;BME280_temperature;BME280_humidity;BME280_pressure;Samples;Min_cycle;Max_cycle;Signal;HPM_P1;HPM_P2
2021/07/06 00:00:46;;;;;;;2.80;1.80;;;19.60;99.90;;;;;;5056575;28;20170;-75
2021/07/06 00:03:12;;;;;;;1.93;1.63;;;19.60;99.90;;;;;;5056113;28;20559;-75
2021/07/06 00:05:37;;;;;;;2.77;2.13;;;19.60;99.90;;;;;;5057454;28;20407;-75
2021/07/06 00:08:03;;;;;;;2.30;2.10;;;19.60;99.90;;;;;;5055444;28;20243;-75
2021/07/06 00:10:30;;;;;;;2.07;1.60;;;19.60;99.90;;;;;;5057861;28;20174;-75
2021/07/06 00:12:56;;;;;;;3.00;2.03;;;19.60;99.90;;;;;;5057409;28;20194;-75
2021/07/06 00:15:23;;;;;;;2.67;2.17;;;19.60;99.90;;;;;;5057542;28;20452;-75
2021/07/06 00:17:50;;;;;;;3.00;2.20;;;19.60;99.90;;;;;;5055488;28;20166;-75
2021/07/06 00:20:16;;;;;;;2.33;2.00;;;19.60;99.90;;;;;;5057161;28;20405;-75
2021/07/06 00:22:42;;;;;;;2.50;2.10;;;19.50;99.90;;;;;;5055402;28;20464;-75
2021/07/06 00:25:09;;;;;;;2.33;1.80;;;19.50;99.90;;;;;;5057202;28;20565;-75
2021/07/06 00:27:34;;;;;;;2.10;1.77;;;19.50;99.90;;;;;;5057258;28;20556;-75
2021/07/06 00:30:00;;;;;;;3.73;2.07;;;19.60;99.90;;;;;;5055822;28;20432;-76
2021/07/06 00:32:25;;;;;;;2.77;2.10;;;19.60;99.90;;;;;;5057195;28;20584;-75
2021/07/06 00:34:51;;;;;;;2.57;2.03;;;19.60;99.90;;;;;;5057338;28;20174;-74
2021/07/06 00:37:17;;;;;;;2.20;2.00;;;19.60;99.90;;;;;;5056793;28;20598;-74
2021/07/06 00:39:42;;;;;;;2.97;1.97;;;19.60;99.90;;;;;;5056185;28;20182;-74
2021/07/06 00:42:09;;;;;;;3.40;2.23;;;19.60;99.90;;;;;;5057335;28;20225;-74
2021/07/06 00:44:35;;;;;;;2.23;1.77;;;19.60;99.90;;;;;;5057052;28;20167;-74
2021/07/06 00:47:02;;;;;;;5.00;2.20;;;19.60;99.90;;;;;;5056834;28;20472;-74
2021/07/06 00:49:28;;;;;;;3.17;1.93;;;19.60;99.90;;;;;;5061924;28;20165;-75
2021/07/06 00:51:53;;;;;;;2.30;2.10;;;19.60;99.90;;;;;;5067028;28;20409;-75
2021/07/06 00:54:19;;;;;;;2.27;2.07;;;19.50;99.90;;;;;;5065424;28;20186;-74
2021/07/06 00:56:45;;;;;;;2.80;1.70;;;19.50;99.90;;;;;;5062153;28;20189;-73
2021/07/06 00:59:12;;;;;;;2.20;1.87;;;19.60;99.90;;;;;;5057495;28;20492;-74
2021/07/06 01:01:38;;;;;;;2.50;1.83;;;19.60;99.90;;;;;;5054476;28;20202;-74
2021/07/06 01:04:04;;;;;;;4.83;1.80;;;19.60;99.90;;;;;;5056397;28;20546;-74
2021/07/06 01:06:30;;;;;;;2.00;1.60;;;19.60;99.90;;;;;;5056543;28;20182;-74
2021/07/06 01:08:55;;;;;;;3.63;1.70;;;19.60;99.90;;;;;;5056933;28;20908;-74
2021/07/06 01:11:21;;;;;;;1.90;1.70;;;19.60;99.90;;;;;;5054474;28;20193;-74
2021/07/06 01:13:47;;;;;;;4.00;1.90;;;19.60;99.90;;;;;;5055957;28;20239;-74
2021/07/06 01:16:13;;;;;;;2.27;1.50;;;19.60;99.90;;;;;;5056147;28;20432;-74
2021/07/06 01:18:38;;;;;;;2.00;1.70;;;19.60;99.90;;;;;;5056337;28;20478;-74
2021/07/06 01:21:04;;;;;;;2.10;1.67;;;19.60;99.90;;;;;;5054328;28;20198;-74
2021/07/06 01:23:31;;;;;;;3.58;1.90;;;19.60;99.90;;;;;;5055458;28;20765;-74
2021/07/06 01:26:00;;;;;;;1.93;1.73;;;19.60;99.90;;;;;;5056103;28;20205;-74
2021/07/06 01:28:26;;;;;;;2.53;1.80;;;19.60;99.90;;;;;;5055424;28;20498;-74
2021/07/06 01:30:52;;;;;;;3.80;2.13;;;19.60;99.90;;;;;;5055833;28;20933;-74
2021/07/06 01:33:26;;;;;;;2.40;2.20;;;19.60;99.90;;;;;;5055911;28;20409;-74
2021/07/06 01:35:57;;;;;;;1.80;1.40;;;19.60;99.90;;;;;;5056924;28;20726;-74
2021/07/06 01:38:23;;;;;;;2.73;1.50;;;19.60;99.90;;;;;;5055427;28;20770;-74
2021/07/06 01:40:49;;;;;;;3.60;1.63;;;19.70;99.90;;;;;;5055939;28;20408;-74
2021/07/06 01:43:15;;;;;;;1.97;1.50;;;19.60;99.90;;;;;;5055704;28;20457;-74
2021/07/06 01:45:41;;;;;;;2.23;1.80;;;19.60;99.90;;;;;;5056167;28;20212;-74
2021/07/06 01:48:07;;;;;;;3.10;1.83;;;19.60;99.90;;;;;;5053971;28;20555;-75
2021/07/06 01:50:42;;;;;;;2.20;1.80;;;19.60;99.90;;;;;;5054775;28;20470;-75
2021/07/06 01:53:10;;;;;;;2.57;1.77;;;19.60;99.90;;;;;;5055679;28;20426;-75
2021/07/06 01:55:38;;;;;;;3.60;1.63;;;19.60;99.90;;;;;;5055506;28;20432;-75
2021/07/06 01:58:07;;;;;;;2.10;1.50;;;19.60;99.90;;;;;;5055092;28;20440;-76
2021/07/06 02:00:35;;;;;;;3.13;1.80;;;19.60;99.90;;;;;;5054231;28;20427;-75
2021/07/06 02:03:02;;;;;;;5.07;1.53;;;19.60;99.90;;;;;;5055181;28;20530;-75
2021/07/06 02:05:38;;;;;;;2.90;1.53;;;19.60;99.90;;;;;;5055153;28;20432;-75
2021/07/06 02:08:06;;;;;;;2.17;1.57;;;19.50;99.90;;;;;;5055231;28;20390;-76
2021/07/06 02:10:32;;;;;;;3.77;1.83;;;19.60;99.90;;;;;;5052407;28;20905;-75
2021/07/06 02:12:59;;;;;;;3.73;2.00;;;19.50;99.90;;;;;;5053308;28;20443;-75
2021/07/06 02:15:26;;;;;;;3.30;1.80;;;19.50;99.90;;;;;;5055958;28;20443;-75
2021/07/06 02:17:52;;;;;;;1.93;1.73;;;19.50;99.90;;;;;;5055009;28;20477;-75
2021/07/06 02:20:20;;;;;;;2.80;1.63;;;19.50;99.90;;;;;;5053051;28;20423;-75
2021/07/06 02:22:47;;;;;;;1.80;1.60;;;19.50;99.90;;;;;;5054903;28;20507;-75
2021/07/06 02:25:14;;;;;;;2.10;1.50;;;19.50;99.90;;;;;;5055200;28;20977;-75
2021/07/06 02:27:41;;;;;;;2.80;1.67;;;19.50;99.90;;;;;;5062143;28;20408;-75
2021/07/06 02:30:08;;;;;;;3.80;1.60;;;19.50;99.90;;;;;;5076321;28;20422;-75
2021/07/06 02:32:34;;;;;;;2.17;1.47;;;19.50;99.90;;;;;;5077862;28;20440;-76
2021/07/06 02:34:59;;;;;;;3.10;1.40;;;19.40;99.90;;;;;;5078110;28;20415;-75
2021/07/06 02:37:25;;;;;;;2.17;1.70;;;19.50;99.90;;;;;;5078443;28;20165;-75
2021/07/06 02:39:51;;;;;;;3.60;1.60;;;19.40;99.90;;;;;;5077429;28;20181;-74
2021/07/06 02:42:16;;;;;;;3.10;2.00;;;19.40;99.90;;;;;;5078015;28;20197;-75
2021/07/06 02:44:42;;;;;;;3.10;1.60;;;19.40;99.90;;;;;;5077513;28;20185;-75
2021/07/06 02:47:08;;;;;;;3.00;1.90;;;19.40;99.90;;;;;;5072146;28;20546;-75
2021/07/06 02:49:33;;;;;;;2.73;1.60;;;19.40;99.90;;;;;;5053152;28;20526;-75
2021/07/06 02:51:59;;;;;;;3.50;1.33;;;19.40;99.90;;;;;;5055555;28;20554;-75
2021/07/06 02:54:24;;;;;;;4.03;1.90;;;19.40;99.90;;;;;;5054761;28;20227;-75
2021/07/06 02:56:50;;;;;;;3.17;1.80;;;19.50;99.90;;;;;;5054384;28;20204;-74
2021/07/06 02:59:16;;;;;;;3.37;1.63;;;19.40;99.90;;;;;;5054509;28;20186;-75
2021/07/06 03:01:41;;;;;;;2.27;1.60;;;19.50;99.90;;;;;;5053222;28;20707;-74
2021/07/06 03:04:07;;;;;;;3.83;1.30;;;19.50;99.90;;;;;;5053931;28;20222;-75
2021/07/06 03:06:32;;;;;;;3.87;2.07;;;19.50;99.90;;;;;;5053509;28;20193;-75
2021/07/06 03:08:59;;;;;;;2.37;1.50;;;19.50;99.90;;;;;;5054205;28;20253;-75
2021/07/06 03:11:24;;;;;;;3.40;1.70;;;19.50;99.90;;;;;;5052453;28;20185;-75
2021/07/06 03:13:50;;;;;;;2.10;1.40;;;19.50;99.90;;;;;;5054030;28;20497;-74
2021/07/06 03:16:16;;;;;;;3.83;1.60;;;19.50;99.90;;;;;;5053872;28;20206;-75
2021/07/06 03:18:41;;;;;;;2.47;1.60;;;19.50;99.90;;;;;;5054673;28;20174;-74
2021/07/06 03:21:07;;;;;;;5.13;1.67;;;19.50;99.90;;;;;;5053446;28;20174;-75
2021/07/06 03:23:32;;;;;;;3.20;1.60;;;19.60;99.90;;;;;;5053203;28;20186;-74
2021/07/06 03:25:58;;;;;;;2.60;1.63;;;19.60;99.90;;;;;;5054134;28;20214;-74
2021/07/06 03:28:24;;;;;;;3.40;1.63;;;19.60;99.90;;;;;;5052498;28;20182;-74
2021/07/06 03:30:50;;;;;;;3.33;1.60;;;19.60;99.90;;;;;;5053672;28;20189;-75
2021/07/06 03:33:15;;;;;;;3.10;1.50;;;19.50;99.90;;;;;;5051376;28;20174;-76
2021/07/06 03:35:41;;;;;;;3.70;1.60;;;19.50;99.90;;;;;;5052570;28;20246;-75
2021/07/06 03:38:07;;;;;;;2.38;1.70;;;19.50;99.90;;;;;;5053166;28;20447;-75
2021/07/06 03:40:34;;;;;;;2.43;1.60;;;19.50;99.90;;;;;;5052789;28;20174;-75
2021/07/06 03:43:00;;;;;;;1.90;1.50;;;19.50;99.90;;;;;;5051408;28;20256;-76
2021/07/06 03:45:26;;;;;;;2.73;1.50;;;19.60;99.90;;;;;;5054219;28;20441;-75
2021/07/06 03:47:53;;;;;;;2.60;1.33;;;19.50;99.90;;;;;;5052610;28;20413;-75
2021/07/06 03:50:21;;;;;;;2.60;1.70;;;19.50;99.90;;;;;;5053735;28;20431;-76
2021/07/06 03:52:53;;;;;;;2.77;1.90;;;19.50;99.90;;;;;;5053484;28;20432;-75
2021/07/06 03:55:19;;;;;;;2.40;1.70;;;19.50;99.90;;;;;;5052375;28;20816;-75
2021/07/06 03:57:45;;;;;;;3.33;2.17;;;19.60;99.90;;;;;;5053500;28;20440;-75
2021/07/06 04:00:14;;;;;;;2.63;1.70;;;19.60;99.90;;;;;;5053679;28;20500;-77
2021/07/06 04:02:40;;;;;;;3.60;1.70;;;19.60;99.90;;;;;;5053007;28;20456;-75
2021/07/06 04:05:08;;;;;;;2.67;1.67;;;19.60;99.90;;;;;;5051728;28;20965;-75
2021/07/06 04:07:35;;;;;;;3.97;1.70;;;19.60;99.90;;;;;;5053433;28;20500;-75
2021/07/06 04:10:02;;;;;;;3.07;1.87;;;19.60;99.90;;;;;;5053840;28;20409;-75
2021/07/06 04:12:27;;;;;;;2.33;1.87;;;19.70;99.90;;;;;;5052847;28;20408;-76
2021/07/06 04:14:53;;;;;;;1.93;1.70;;;19.70;99.90;;;;;;5051914;28;20474;-75
2021/07/06 04:17:19;;;;;;;2.53;1.80;;;19.70;99.90;;;;;;5054600;28;20174;-75
2021/07/06 04:19:45;;;;;;;2.67;1.87;;;19.70;99.90;;;;;;5053216;28;20514;-75
2021/07/06 04:22:10;;;;;;;2.27;1.63;;;19.80;99.90;;;;;;5053397;28;20547;-75
2021/07/06 04:24:36;;;;;;;2.00;1.63;;;19.80;99.90;;;;;;5053495;28;20589;-76
2021/07/06 04:27:03;;;;;;;2.27;1.50;;;19.80;99.90;;;;;;5051466;28;20197;-76
2021/07/06 04:29:28;;;;;;;2.47;1.70;;;19.90;99.90;;;;;;5053027;28;20985;-75
2021/07/06 04:31:54;;;;;;;2.53;2.00;;;19.90;99.90;;;;;;5053227;28;20417;-75
2021/07/06 04:34:21;;;;;;;3.33;1.87;;;19.90;99.90;;;;;;5052884;28;20170;-75
2021/07/06 04:36:47;;;;;;;3.70;2.00;;;20.00;99.90;;;;;;5051365;28;20436;-76
2021/07/06 04:39:12;;;;;;;2.10;1.63;;;20.00;99.90;;;;;;5053279;28;20419;-75
2021/07/06 04:41:38;;;;;;;2.90;2.30;;;20.10;99.90;;;;;;5052636;28;20194;-75
2021/07/06 04:44:04;;;;;;;1.83;1.50;;;20.10;99.90;;;;;;5054910;28;20203;-75
2021/07/06 04:46:29;;;;;;;3.30;1.80;;;20.10;99.90;;;;;;5054897;28;20189;-75
2021/07/06 04:48:55;;;;;;;3.40;1.70;;;20.10;99.90;;;;;;5056688;28;20170;-75
2021/07/06 04:51:20;;;;;;;3.77;2.00;;;20.10;99.90;;;;;;5057349;28;20170;-75
2021/07/06 04:53:46;;;;;;;2.37;1.80;;;20.10;99.90;;;;;;5056097;28;20249;-75
2021/07/06 04:56:12;;;;;;;3.27;1.90;;;20.00;99.90;;;;;;5056509;28;20197;-75
2021/07/06 04:58:37;;;;;;;3.60;1.80;;;20.00;99.90;;;;;;5054954;28;20248;-75
2021/07/06 05:01:04;;;;;;;2.90;2.20;;;20.00;99.90;;;;;;5054431;28;20502;-75
2021/07/06 05:03:31;;;;;;;2.80;1.90;;;20.00;99.90;;;;;;5055912;28;20167;-75
2021/07/06 05:05:57;;;;;;;2.97;2.10;;;20.00;99.90;;;;;;5056825;28;20424;-75
2021/07/06 05:08:23;;;;;;;3.07;2.00;;;20.00;99.90;;;;;;5049244;28;20448;-75
2021/07/06 05:10:50;;;;;;;6.53;2.70;;;20.00;99.90;;;;;;5037628;28;20401;-75
2021/07/06 05:13:16;;;;;;;2.30;1.90;;;20.00;99.90;;;;;;5038056;28;20174;-75
2021/07/06 05:15:42;;;;;;;2.67;1.93;;;20.00;99.90;;;;;;5038152;28;20429;-75
2021/07/06 05:18:11;;;;;;;4.40;2.30;;;20.00;99.90;;;;;;5042127;28;20177;-76
2021/07/06 05:20:38;;;;;;;2.90;2.00;;;20.00;99.90;;;;;;5066646;28;20204;-75
2021/07/06 05:23:03;;;;;;;4.30;2.10;;;19.90;99.90;;;;;;5067154;28;20893;-75
2021/07/06 05:25:29;;;;;;;3.27;1.97;;;19.90;99.90;;;;;;5055117;28;20432;-75
2021/07/06 05:27:55;;;;;;;2.23;1.90;;;19.90;99.90;;;;;;5054699;28;20185;-75
2021/07/06 05:30:21;;;;;;;8.40;2.10;;;19.90;99.90;;;;;;5053131;28;20452;-75
2021/07/06 05:32:47;;;;;;;3.13;2.20;;;19.90;99.90;;;;;;5056104;28;20584;-75
2021/07/06 05:35:13;;;;;;;2.67;2.00;;;19.90;99.90;;;;;;5056028;28;20198;-75
2021/07/06 05:37:39;;;;;;;3.60;2.67;;;19.90;99.90;;;;;;5054207;28;20424;-75
2021/07/06 05:40:07;;;;;;;3.17;2.03;;;19.90;99.90;;;;;;5052901;28;20432;-75
2021/07/06 05:42:36;;;;;;;3.53;2.40;;;19.90;99.90;;;;;;5035301;28;20441;-75
2021/07/06 05:45:03;;;;;;;4.57;2.43;;;19.90;99.90;;;;;;5035415;28;20652;-75
2021/07/06 05:47:29;;;;;;;3.20;2.17;;;19.90;99.90;;;;;;5035997;28;20456;-75
2021/07/06 05:49:54;;;;;;;3.40;2.37;;;19.90;99.90;;;;;;5036053;28;20410;-75
2021/07/06 05:52:20;;;;;;;2.83;2.23;;;19.90;99.90;;;;;;5050387;28;20247;-75
2021/07/06 05:54:45;;;;;;;4.47;2.17;;;19.90;99.90;;;;;;5054055;28;20663;-75
2021/07/06 05:57:11;;;;;;;3.23;2.47;;;19.90;99.90;;;;;;5055706;28;20205;-75
2021/07/06 05:59:36;;;;;;;2.13;1.90;;;19.90;99.90;;;;;;5055751;28;20174;-75
2021/07/06 06:02:02;;;;;;;4.80;2.23;;;19.90;99.90;;;;;;5053671;28;20224;-75
2021/07/06 06:04:28;;;;;;;3.50;2.37;;;19.90;99.90;;;;;;5053838;28;20171;-75
2021/07/06 06:06:53;;;;;;;4.03;2.40;;;19.80;99.90;;;;;;5053561;28;20198;-75
2021/07/06 06:09:19;;;;;;;3.37;2.33;;;19.80;99.90;;;;;;5055169;28;20167;-75
2021/07/06 06:11:45;;;;;;;2.63;2.10;;;19.80;99.90;;;;;;5053438;28;20766;-75
2021/07/06 06:14:11;;;;;;;2.70;2.20;;;19.80;99.90;;;;;;5055274;28;20167;-75
2021/07/06 06:16:36;;;;;;;5.53;2.20;;;19.80;99.90;;;;;;5054939;28;20197;-75
2021/07/06 06:19:03;;;;;;;4.63;2.70;;;19.70;99.90;;;;;;5054926;28;20424;-75
2021/07/06 06:21:29;;;;;;;3.37;2.30;;;19.70;99.90;;;;;;5053659;28;20566;-75
2021/07/06 06:23:54;;;;;;;4.90;2.33;;;19.70;99.90;;;;;;5054993;28;20408;-75
2021/07/06 06:26:20;;;;;;;4.37;2.70;;;19.70;99.90;;;;;;5054925;28;20274;-75
2021/07/06 06:28:46;;;;;;;2.60;2.27;;;19.60;99.90;;;;;;5053850;28;20170;-75
2021/07/06 06:31:12;;;;;;;3.73;2.60;;;19.60;99.90;;;;;;5054649;28;20174;-75
2021/07/06 06:33:37;;;;;;;3.00;2.70;;;19.60;99.90;;;;;;5054322;28;20186;-75
2021/07/06 06:36:03;;;;;;;5.63;2.53;;;19.60;99.90;;;;;;5054903;28;20186;-74
2021/07/06 06:38:28;;;;;;;3.50;2.43;;;19.60;99.90;;;;;;5053906;28;20197;-74
2021/07/06 06:40:54;;;;;;;4.13;2.37;;;19.50;99.90;;;;;;5055050;28;20624;-75
2021/07/06 06:43:20;;;;;;;4.60;2.67;;;19.60;99.90;;;;;;5052943;28;20254;-74
2021/07/06 06:45:46;;;;;;;4.37;2.60;;;19.60;99.90;;;;;;5054592;28;20273;-74
2021/07/06 06:48:12;;;;;;;4.10;2.10;;;19.60;99.90;;;;;;5052918;28;20174;-75
2021/07/06 06:50:39;;;;;;;4.23;2.33;;;19.50;99.90;;;;;;5054638;28;20474;-74
2021/07/06 06:53:04;;;;;;;7.17;2.50;;;19.60;99.90;;;;;;5052876;28;20240;-74
2021/07/06 06:55:30;;;;;;;3.70;2.70;;;19.60;99.90;;;;;;5053208;28;20474;-74
2021/07/06 06:57:55;;;;;;;3.03;1.97;;;19.60;99.90;;;;;;5052907;28;20186;-75
2021/07/06 07:00:24;;;;;;;3.20;2.50;;;19.60;99.90;;;;;;5052762;28;20174;-76
2021/07/06 07:02:54;;;;;;;3.70;2.20;;;19.60;99.90;;;;;;5052583;28;20198;-75
2021/07/06 07:05:20;;;;;;;3.00;2.47;;;19.60;99.90;;;;;;5052639;28;20452;-75
2021/07/06 07:07:46;;;;;;;4.00;2.10;;;19.60;99.90;;;;;;5053300;28;20436;-75
2021/07/06 07:10:12;;;;;;;2.93;2.47;;;19.60;99.90;;;;;;5054124;28;20190;-75
2021/07/06 07:12:39;;;;;;;3.90;2.53;;;19.60;99.90;;;;;;5052429;28;20208;-76
2021/07/06 07:15:07;;;;;;;3.93;2.03;;;19.50;99.90;;;;;;5050927;28;20453;-74
2021/07/06 07:17:33;;;;;;;2.90;2.03;;;19.50;99.90;;;;;;5054437;28;20413;-73
2021/07/06 07:19:58;;;;;;;3.30;2.33;;;19.50;99.90;;;;;;5048106;28;20433;-74
2021/07/06 07:22:24;;;;;;;4.17;1.90;;;19.50;99.90;;;;;;5034675;28;20623;-74
2021/07/06 07:24:50;;;;;;;2.80;2.20;;;19.50;99.90;;;;;;5040267;28;20231;-73
2021/07/06 07:27:15;;;;;;;4.30;2.20;;;19.40;99.90;;;;;;5033257;28;20179;-73
2021/07/06 07:29:41;;;;;;;2.87;2.00;;;19.40;99.90;;;;;;5034299;28;20941;-73
2021/07/06 07:32:07;;;;;;;2.70;1.90;;;19.30;99.90;;;;;;5033405;28;20751;-73
2021/07/06 07:34:34;;;;;;;6.77;2.27;;;19.40;99.90;;;;;;5050514;28;20273;-74
2021/07/06 07:37:00;;;;;;;3.23;2.33;;;19.40;99.90;;;;;;5053599;28;20511;-74
2021/07/06 07:39:26;;;;;;;3.70;2.40;;;19.40;99.90;;;;;;5053581;28;20405;-73
2021/07/06 07:41:52;;;;;;;3.87;3.00;;;19.50;99.90;;;;;;5041704;28;20465;-73
2021/07/06 07:44:17;;;;;;;4.30;2.77;;;19.50;99.90;;;;;;5044169;28;20232;-73
2021/07/06 07:46:43;;;;;;;3.63;2.70;;;19.60;99.90;;;;;;5049788;28;20559;-73
2021/07/06 07:49:09;;;;;;;3.70;2.60;;;19.70;99.90;;;;;;5034527;28;20171;-73
2021/07/06 07:51:35;;;;;;;4.67;2.50;;;19.80;99.90;;;;;;5034350;28;20248;-73
2021/07/06 07:54:01;;;;;;;3.93;3.60;;;19.90;99.90;;;;;;5035572;28;20442;-73
2021/07/06 07:56:27;;;;;;;3.27;2.80;;;19.90;99.90;;;;;;5053369;28;20540;-73
2021/07/06 07:58:52;;;;;;;3.60;2.37;;;19.90;99.90;;;;;;5053389;28;20513;-73
2021/07/06 08:01:18;;;;;;;3.90;2.67;;;19.90;99.90;;;;;;5052680;28;20181;-72
2021/07/06 08:03:44;;;;;;;3.77;2.80;;;20.00;99.90;;;;;;5050288;28;20197;-72
2021/07/06 08:06:10;;;;;;;2.57;2.20;;;20.10;99.90;;;;;;5047694;28;20238;-73
2021/07/06 08:08:36;;;;;;;3.27;1.90;;;20.10;99.90;;;;;;5053574;28;20163;-73
2021/07/06 08:11:02;;;;;;;3.70;2.17;;;20.10;99.90;;;;;;5053641;28;20420;-74
2021/07/06 08:13:32;;;;;;;2.90;2.43;;;20.10;99.90;;;;;;5034920;28;20170;-73
2021/07/06 08:15:57;;;;;;;3.63;2.03;;;20.10;99.90;;;;;;5041087;28;20460;-73
2021/07/06 08:18:23;;;;;;;2.80;1.93;;;20.10;99.90;;;;;;5040772;28;20844;-73
2021/07/06 08:20:49;;;;;;;4.07;2.10;;;20.10;99.90;;;;;;5037817;28;20555;-73
2021/07/06 08:23:15;;;;;;;2.55;1.75;;;20.20;99.90;;;;;;5036932;28;20065;-73
2021/07/06 08:25:40;;;;;;;3.07;2.10;;;20.10;99.90;;;;;;5037473;28;20233;-73
2021/07/06 08:28:07;;;;;;;4.33;1.87;;;20.20;99.90;;;;;;5037564;28;20588;-74
2021/07/06 08:30:32;;;;;;;3.00;2.30;;;20.20;99.90;;;;;;5037265;28;20791;-74
2021/07/06 08:32:58;;;;;;;3.53;2.80;;;20.20;99.90;;;;;;5034101;28;20413;-73
2021/07/06 08:35:24;;;;;;;3.40;2.00;;;20.30;99.90;;;;;;5036066;28;20256;-71
2021/07/06 08:37:50;;;;;;;2.27;1.77;;;20.50;99.90;;;;;;5048798;28;20426;-69
2021/07/06 08:40:16;;;;;;;2.43;1.97;;;20.60;99.90;;;;;;5056340;28;20175;-70
2021/07/06 08:42:42;;;;;;;3.70;2.30;;;20.70;99.90;;;;;;5055895;28;20209;-71
2021/07/06 08:45:09;;;;;;;3.60;2.00;;;20.80;99.90;;;;;;5056331;28;20782;-71
2021/07/06 08:47:35;;;;;;;2.43;1.90;;;21.00;99.90;;;;;;5054450;28;20485;-70
2021/07/06 08:50:07;;;;;;;2.37;1.83;;;21.10;99.90;;;;;;5056109;28;20774;-72
2021/07/06 08:52:37;;;;;;;2.30;1.60;;;21.10;99.90;;;;;;5056167;28;20400;-71
2021/07/06 08:55:03;;;;;;;1.90;1.43;;;21.20;99.90;;;;;;5056310;28;20491;-75
2021/07/06 08:57:28;;;;;;;2.43;1.40;;;21.30;99.90;;;;;;5056173;28;20424;-78
2021/07/06 08:59:54;;;;;;;4.47;2.03;;;21.30;99.90;;;;;;5037886;28;20424;-72
2021/07/06 09:02:22;;;;;;;5.40;1.80;;;21.40;99.90;;;;;;5036400;28;20548;-73
2021/07/06 09:04:53;;;;;;;3.60;2.00;;;21.40;99.90;;;;;;5034554;28;20175;-69
2021/07/06 09:07:20;;;;;;;5.27;2.30;;;21.40;99.90;;;;;;5034088;28;20418;-71
2021/07/06 09:09:46;;;;;;;6.40;2.17;;;21.40;99.90;;;;;;5036838;28;20425;-70
2021/07/06 09:12:14;;;;;;;3.33;2.17;;;21.40;99.90;;;;;;5035806;28;20460;-70
2021/07/06 09:14:43;;;;;;;4.10;2.10;;;21.30;99.90;;;;;;5034731;28;20414;-69
2021/07/06 09:17:37;;;;;;;3.67;2.17;;;21.30;99.90;;;;;;5034245;28;20191;-69
2021/07/06 09:20:11;;;;;;;9.17;2.87;;;21.40;99.90;;;;;;5034788;28;20432;-69
2021/07/06 09:22:37;;;;;;;4.30;2.30;;;21.40;99.90;;;;;;5035543;28;20779;-69
2021/07/06 09:25:08;;;;;;;2.67;2.00;;;21.50;99.90;;;;;;5035513;28;20424;-70
2021/07/06 09:27:40;;;;;;;2.53;1.60;;;21.40;99.90;;;;;;5035542;28;20159;-70
2021/07/06 09:30:08;;;;;;;4.37;2.00;;;21.40;99.90;;;;;;5036880;28;20414;-69
2021/07/06 09:32:35;;;;;;;2.60;1.63;;;21.40;99.90;;;;;;5035293;28;20412;-69
2021/07/06 09:35:09;;;;;;;5.10;2.00;;;21.40;99.90;;;;;;5035414;28;20441;-70
2021/07/06 09:37:55;;;;;;;1.50;1.33;;;21.40;99.90;;;;;;5036213;28;20508;-68
2021/07/06 09:40:35;;;;;;;4.33;1.60;;;21.50;99.90;;;;;;5035748;28;20398;-70
2021/07/06 09:43:14;;;;;;;3.37;2.10;;;21.60;99.90;;;;;;5035684;28;20465;-69
2021/07/06 09:45:42;;;;;;;2.80;1.33;;;21.60;99.90;;;;;;5036054;28;20433;-70
2021/07/06 09:48:09;;;;;;;2.33;1.50;;;21.60;99.90;;;;;;5045867;28;20440;-70
2021/07/06 09:50:34;;;;;;;2.90;1.80;;;21.60;99.90;;;;;;5056757;28;20413;-70
2021/07/06 09:53:21;;;;;;;3.20;1.80;;;21.70;99.90;;;;;;5055478;28;20408;-69
2021/07/06 09:55:47;;;;;;;3.00;1.70;;;21.70;99.90;;;;;;5055726;28;20447;-69
2021/07/06 09:58:12;;;;;;;3.80;1.70;;;21.70;99.90;;;;;;5053669;28;20220;-68
2021/07/06 10:00:38;;;;;;;1.80;1.30;;;21.70;99.90;;;;;;5055084;28;20514;-69
2021/07/06 10:03:03;;;;;;;2.60;1.77;;;21.70;99.90;;;;;;5054628;28;20202;-70
2021/07/06 10:05:29;;;;;;;2.30;1.87;;;21.70;99.90;;;;;;5054822;28;20195;-73
2021/07/06 10:07:55;;;;;;;2.47;1.70;;;21.70;99.90;;;;;;5055408;28;20166;-69
2021/07/06 10:10:22;;;;;;;2.30;1.77;;;21.70;99.90;;;;;;5038458;28;20175;-71
2021/07/06 10:12:49;;;;;;;2.10;1.80;;;21.70;99.90;;;;;;5035153;28;20405;-68
2021/07/06 10:15:16;;;;;;;3.10;1.80;;;21.70;99.90;;;;;;5034784;28;20452;-71
2021/07/06 10:17:43;;;;;;;1.90;1.40;;;21.80;99.90;;;;;;5034569;28;20829;-71
2021/07/06 10:20:12;;;;;;;2.10;1.57;;;21.80;99.90;;;;;;5036259;28;20483;-71
2021/07/06 10:22:38;;;;;;;2.87;1.63;;;21.80;99.90;;;;;;5034401;28;20453;-70
2021/07/06 10:25:07;;;;;;;4.30;2.20;;;21.90;99.90;;;;;;5034895;28;20499;-70
2021/07/06 10:27:36;;;;;;;1.73;1.30;;;21.90;99.90;;;;;;5034875;28;20460;-70
2021/07/06 10:30:16;;;;;;;2.07;1.47;;;22.10;99.90;;;;;;5037289;28;20493;-71
2021/07/06 10:32:50;;;;;;;2.07;1.13;;;22.20;99.90;;;;;;5054134;28;20914;-72
2021/07/06 10:35:17;;;;;;;3.83;1.80;;;22.40;99.90;;;;;;5054702;28;20485;-73
2021/07/06 10:37:43;;;;;;;2.90;1.53;;;22.40;99.90;;;;;;5054187;28;20496;-72
2021/07/06 10:40:24;;;;;;;2.40;1.30;;;22.40;99.90;;;;;;5054487;28;20436;-70
2021/07/06 10:42:51;;;;;;;3.03;1.60;;;22.60;99.90;;;;;;5053624;28;20464;-70
2021/07/06 10:45:21;;;;;;;2.13;1.70;;;22.50;99.90;;;;;;5044346;28;20478;-73
2021/07/06 10:47:50;;;;;;;2.50;1.50;;;22.30;99.90;;;;;;5045484;28;20420;-72
2021/07/06 10:50:30;;;;;;;7.50;2.13;;;22.20;99.90;;;;;;5046671;28;20816;-73
2021/07/06 10:53:19;;;;;;;3.30;2.17;;;22.10;99.90;;;;;;5062294;28;20458;-73
2021/07/06 10:55:57;;;;;;;6.83;1.63;;;22.00;99.90;;;;;;5065734;28;20446;-73
2021/07/06 10:58:56;;;;;;;1.97;1.50;;;22.00;99.90;;;;;;5056086;28;20432;-73
2021/07/06 11:01:36;;;;;;;3.07;1.50;;;22.00;99.90;;;;;;5042650;28;20504;-71
2021/07/06 11:04:03;;;;;;;3.30;1.57;;;22.00;99.90;;;;;;5048107;28;20912;-71
2021/07/06 11:06:47;;;;;;;2.57;1.53;;;21.90;99.90;;;;;;5050643;28;20800;-73
2021/07/06 11:09:36;;;;;;;2.07;1.40;;;21.90;99.90;;;;;;5054194;28;20433;-74
2021/07/06 11:12:21;;;;;;;3.05;1.70;;;21.90;99.90;;;;;;5029567;28;20487;-76
2021/07/06 11:15:19;;;;;;;1.83;1.23;;;22.00;99.90;;;;;;5030352;28;20190;-74
2021/07/06 11:17:58;;;;;;;1.90;1.23;;;22.10;99.90;;;;;;5030943;28;20461;-74
2021/07/06 11:20:32;;;;;;;2.27;1.60;;;22.20;99.90;;;;;;5031333;28;21099;-74
2021/07/06 11:22:59;;;;;;;2.00;1.20;;;22.40;99.90;;;;;;5031871;28;20590;-74
2021/07/06 11:25:36;;;;;;;2.80;1.30;;;22.50;99.90;;;;;;5050613;28;20504;-74
2021/07/06 11:28:02;;;;;;;13.93;2.00;;;22.60;99.90;;;;;;5062915;28;20497;-74
2021/07/06 11:30:31;;;;;;;2.40;1.30;;;22.80;99.90;;;;;;5050364;28;20405;-74
2021/07/06 11:33:16;;;;;;;2.53;1.00;;;22.90;99.70;;;;;;5050980;28;20257;-75
2021/07/06 11:35:42;;;;;;;1.70;1.10;;;23.00;99.00;;;;;;5031849;28;20465;-73
2021/07/06 11:38:11;;;;;;;6.40;1.33;;;23.00;98.90;;;;;;5033713;28;20474;-74
2021/07/06 11:40:39;;;;;;;1.70;1.20;;;22.90;98.80;;;;;;5050201;28;20178;-73
2021/07/06 11:43:05;;;;;;;3.00;2.03;;;22.80;99.20;;;;;;5049047;28;20486;-74
2021/07/06 11:45:31;;;;;;;4.70;1.10;;;22.70;99.10;;;;;;5037131;28;20441;-74
2021/07/06 11:48:12;;;;;;;2.00;1.30;;;22.60;98.50;;;;;;5030040;28;20910;-74
2021/07/06 11:50:39;;;;;;;2.60;1.10;;;22.60;98.50;;;;;;5028707;28;20175;-72
2021/07/06 11:53:05;;;;;;;3.35;1.30;;;22.70;98.50;;;;;;5029691;28;20464;-74
2021/07/06 11:55:33;;;;;;;1.93;1.00;;;22.70;98.60;;;;;;5039715;28;20197;-74
2021/07/06 11:58:00;;;;;;;2.13;1.03;;;22.60;98.30;;;;;;5053500;28;20444;-74
2021/07/06 12:00:29;;;;;;;4.60;1.60;;;22.70;98.30;;;;;;5070288;28;20518;-74
2021/07/06 12:03:18;;;;;;;4.90;1.40;;;22.80;97.90;;;;;;5072878;28;20482;-74
2021/07/06 12:05:46;;;;;;;4.13;1.50;;;23.00;98.00;;;;;;5067692;28;20190;-74
2021/07/06 12:08:13;;;;;;;1.97;1.20;;;23.00;97.20;;;;;;5034225;28;20417;-74
2021/07/06 12:10:55;;;;;;;1.70;1.13;;;23.00;96.70;;;;;;5032764;28;20871;-74
2021/07/06 12:13:21;;;;;;;5.90;1.20;;;23.00;96.50;;;;;;5033824;28;20417;-74
2021/07/06 12:15:47;;;;;;;5.50;1.77;;;23.00;95.80;;;;;;5033473;28;20547;-73
2021/07/06 12:18:14;;;;;;;2.17;1.30;;;23.00;95.80;;;;;;5033272;28;20484;-75
2021/07/06 12:20:40;;;;;;;1.60;0.90;;;23.20;95.80;;;;;;5034048;28;20448;-74
2021/07/06 12:23:06;;;;;;;2.07;1.63;;;23.30;95.30;;;;;;5031309;28;20476;-73
2021/07/06 12:25:32;;;;;;;2.07;1.20;;;23.30;95.20;;;;;;5040685;28;20886;-74
2021/07/06 12:27:58;;;;;;;2.83;1.03;;;23.40;95.20;;;;;;5041508;28;20197;-74
2021/07/06 12:30:23;;;;;;;2.10;1.10;;;23.30;94.40;;;;;;5033785;28;20456;-74
2021/07/06 12:33:08;;;;;;;3.10;1.00;;;23.30;94.70;;;;;;5032455;28;20182;-74
2021/07/06 12:35:35;;;;;;;3.00;1.40;;;23.20;94.90;;;;;;5032969;28;20417;-74
2021/07/06 12:38:05;;;;;;;2.50;1.30;;;23.20;94.60;;;;;;5035848;28;20170;-74
2021/07/06 12:40:31;;;;;;;3.10;1.10;;;23.20;94.70;;;;;;5033549;28;20455;-74
2021/07/06 12:42:57;;;;;;;2.43;1.20;;;23.20;93.80;;;;;;5032058;28;20567;-74
2021/07/06 12:45:33;;;;;;;2.40;1.17;;;23.20;95.10;;;;;;5033047;28;20437;-74
2021/07/06 12:47:59;;;;;;;1.10;0.90;;;23.20;94.00;;;;;;5032423;28;20413;-74
2021/07/06 12:50:26;;;;;;;1.87;1.10;;;23.20;93.70;;;;;;5052170;28;20429;-74